Time;durP1;ratioP1;P1;durP2;ratioP2;P2;SDS_P1;SDS_P2;PMS_P1;PMS_P2;Temp;Humidity;BMP_temperature;BMP_pressure;BME280_temperature;BME280_humidity;BME280_pressure;Samples;Min_cycle;Max_cycle;Signal;HPM_P1;HPM_P2
2023/05/02 00:00:13;;;;;;;1.00;1.00;;;;;;;;;;5089256;28;20213;-59
2023/05/02 00:02:41;;;;;;;1.05;1.05;;;;;;;;;;5083391;28;20261;-58
2023/05/02 00:05:09;;;;;;;1.30;1.20;;;;;;;;;;5068521;28;20218;-60
2023/05/02 00:07:36;;;;;;;1.17;1.17;;;;;;;;;;5068360;28;20218;-58
2023/05/02 00:10:04;;;;;;;1.27;1.25;;;;;;;;;;5068446;28;20737;-58
2023/05/02 00:12:32;;;;;;;1.17;1.17;;;;;;;;;;5067633;28;20242;-58
2023/05/02 00:14:59;;;;;;;1.27;1.27;;;;;;;;;;5068346;28;20305;-58
2023/05/02 00:17:26;;;;;;;1.17;1.17;;;;;;;;;;5068160;28;20291;-58
2023/05/02 00:19:55;;;;;;;1.08;1.08;;;;;;;;;;5068386;28;20226;-58
2023/05/02 00:22:22;;;;;;;0.90;0.90;;;;;;;;;;5067799;28;20413;-59
2023/05/02 00:24:50;;;;;;;3.22;1.23;;;;;;;;;;5067075;28;20207;-58
2023/05/02 00:27:18;;;;;;;3.40;1.10;;;;;;;;;;5067971;28;20229;-58
2023/05/02 00:29:46;;;;;;;1.00;1.00;;;;;;;;;;5068090;28;20277;-58
2023/05/02 00:32:13;;;;;;;1.17;1.17;;;;;;;;;;5067874;28;20795;-58
2023/05/02 00:34:41;;;;;;;1.20;1.10;;;;;;;;;;5067419;28;20198;-58
2023/05/02 00:37:09;;;;;;;2.00;0.95;;;;;;;;;;5068069;28;20834;-58
2023/05/02 00:39:36;;;;;;;0.97;0.97;;;;;;;;;;5067164;28;20641;-58
2023/05/02 00:42:03;;;;;;;1.03;1.03;;;;;;;;;;5067050;28;20207;-58
2023/05/02 00:44:31;;;;;;;1.30;1.20;;;;;;;;;;5067220;28;20725;-58
2023/05/02 00:46:59;;;;;;;1.23;1.23;;;;;;;;;;5067982;28;20203;-58
2023/05/02 00:49:26;;;;;;;1.20;1.20;;;;;;;;;;5067364;28;20218;-58
2023/05/02 00:51:54;;;;;;;1.35;1.25;;;;;;;;;;5067726;28;20207;-58
2023/05/02 00:54:22;;;;;;;1.20;1.20;;;;;;;;;;5067396;28;20199;-59
2023/05/02 00:56:49;;;;;;;0.97;0.97;;;;;;;;;;5067754;28;20731;-59
2023/05/02 00:59:16;;;;;;;1.48;1.48;;;;;;;;;;5063471;28;20362;-59
2023/05/02 01:01:49;;;;;;;1.73;1.63;;;;;;;;;;5065906;28;20215;-59
2023/05/02 01:04:22;;;;;;;2.17;1.63;;;;;;;;;;5065733;28;20226;-59
2023/05/02 01:06:54;;;;;;;4.50;1.63;;;;;;;;;;5063491;28;20257;-59
2023/05/02 01:09:27;;;;;;;1.90;1.80;;;;;;;;;;5067426;28;20647;-58
2023/05/02 01:11:56;;;;;;;1.30;1.30;;;;;;;;;;5052302;28;20230;-59
2023/05/02 01:14:24;;;;;;;1.50;1.50;;;;;;;;;;5067224;28;20199;-59
2023/05/02 01:16:53;;;;;;;2.33;1.27;;;;;;;;;;5067554;28;20705;-59
2023/05/02 01:19:23;;;;;;;1.80;1.70;;;;;;;;;;5066966;28;20203;-59
2023/05/02 01:21:52;;;;;;;1.93;1.40;;;;;;;;;;5067057;28;20199;-58
2023/05/02 01:24:22;;;;;;;2.73;1.80;;;;;;;;;;5066616;28;20661;-58
2023/05/02 01:26:56;;;;;;;2.97;1.60;;;;;;;;;;5066915;28;20291;-59
2023/05/02 01:29:25;;;;;;;1.80;1.77;;;;;;;;;;5067255;28;20214;-58
2023/05/02 01:31:52;;;;;;;1.87;1.77;;;;;;;;;;5066962;28;20200;-59
2023/05/02 01:34:20;;;;;;;2.23;2.13;;;;;;;;;;5066937;28;20696;-58
2023/05/02 01:36:48;;;;;;;2.73;2.53;;;;;;;;;;5067067;28;20598;-58
2023/05/02 01:39:19;;;;;;;2.33;2.20;;;;;;;;;;5066630;28;20266;-59
2023/05/02 01:41:50;;;;;;;2.60;2.23;;;;;;;;;;5067034;28;20215;-59
2023/05/02 01:44:17;;;;;;;2.00;1.53;;;;;;;;;;5064936;28;20234;-59
2023/05/02 01:46:46;;;;;;;3.03;1.53;;;;;;;;;;5067074;28;20203;-59
2023/05/02 01:49:13;;;;;;;2.33;1.87;;;;;;;;;;5066981;28;20203;-59
2023/05/02 01:51:44;;;;;;;1.97;1.87;;;;;;;;;;5066924;28;20228;-58
2023/05/02 01:54:15;;;;;;;2.70;2.50;;;;;;;;;;5066911;28;20253;-59
2023/05/02 01:56:44;;;;;;;2.33;2.23;;;;;;;;;;5066849;28;20207;-58
2023/05/02 01:59:12;;;;;;;2.20;2.07;;;;;;;;;;5066836;28;20218;-59
2023/05/02 02:01:40;;;;;;;2.70;2.40;;;;;;;;;;5067076;28;20207;-59
2023/05/02 02:04:10;;;;;;;4.77;3.50;;;;;;;;;;5066591;28;20317;-59
2023/05/02 02:06:37;;;;;;;7.07;2.23;;;;;;;;;;5066682;28;20221;-59
2023/05/02 02:09:04;;;;;;;2.90;2.60;;;;;;;;;;5066581;28;20211;-59
2023/05/02 02:11:35;;;;;;;4.87;4.33;;;;;;;;;;5066908;28;20218;-59
2023/05/02 02:14:05;;;;;;;4.67;3.97;;;;;;;;;;5066604;28;20245;-59
2023/05/02 02:16:34;;;;;;;4.03;3.70;;;;;;;;;;5066771;28;20203;-59
2023/05/02 02:19:05;;;;;;;3.00;2.80;;;;;;;;;;5066703;28;20199;-58
2023/05/02 02:21:34;;;;;;;3.33;3.07;;;;;;;;;;5066855;28;20256;-58
2023/05/02 02:24:03;;;;;;;2.83;2.63;;;;;;;;;;5066242;28;20223;-59
2023/05/02 02:26:30;;;;;;;3.37;3.07;;;;;;;;;;5066475;28;20210;-59
2023/05/02 02:28:57;;;;;;;3.00;2.87;;;;;;;;;;5066337;28;20206;-59
2023/05/02 02:31:24;;;;;;;3.13;2.93;;;;;;;;;;5066783;28;20581;-58
2023/05/02 02:33:52;;;;;;;2.63;2.53;;;;;;;;;;5066100;28;20233;-58
2023/05/02 02:36:22;;;;;;;3.23;3.03;;;;;;;;;;5066311;28;20199;-58
2023/05/02 02:38:56;;;;;;;3.40;3.10;;;;;;;;;;5066247;28;20207;-58
2023/05/02 02:41:25;;;;;;;5.40;3.20;;;;;;;;;;5066468;28;20544;-59
2023/05/02 02:43:59;;;;;;;3.30;3.10;;;;;;;;;;5065187;28;20350;-59
2023/05/02 02:46:30;;;;;;;3.50;3.10;;;;;;;;;;5065699;28;20210;-58
2023/05/02 02:48:58;;;;;;;4.47;2.97;;;;;;;;;;5069043;28;20210;-59
2023/05/02 02:51:29;;;;;;;3.77;3.47;;;;;;;;;;5069129;28;20333;-59
2023/05/02 02:54:01;;;;;;;4.67;3.60;;;;;;;;;;5069077;28;20195;-58
2023/05/02 02:56:30;;;;;;;3.83;3.53;;;;;;;;;;5069094;28;20235;-58
2023/05/02 02:58:58;;;;;;;5.93;3.93;;;;;;;;;;5069458;28;20219;-58
2023/05/02 03:01:27;;;;;;;5.37;4.40;;;;;;;;;;5069049;28;20736;-59
2023/05/02 03:03:55;;;;;;;4.03;3.60;;;;;;;;;;5068784;28;20593;-59
2023/05/02 03:06:22;;;;;;;4.17;3.83;;;;;;;;;;5068966;28;20214;-58
2023/05/02 03:08:49;;;;;;;6.70;4.17;;;;;;;;;;5069197;28;20214;-59
2023/05/02 03:11:17;;;;;;;6.47;4.60;;;;;;;;;;5068905;28;20223;-59
2023/05/02 03:13:44;;;;;;;5.00;4.50;;;;;;;;;;5069561;28;20207;-59
2023/05/02 03:16:30;;;;;;;5.03;4.47;;;;;;;;;;5069281;28;20207;-58
2023/05/02 03:18:57;;;;;;;5.07;4.57;;;;;;;;;;5069458;28;20209;-58
2023/05/02 03:21:24;;;;;;;6.93;5.00;;;;;;;;;;5069314;28;20207;-58
2023/05/02 03:23:51;;;;;;;7.53;5.73;;;;;;;;;;5069017;28;20253;-58
2023/05/02 03:26:20;;;;;;;5.33;4.63;;;;;;;;;;5068851;28;20199;-59
2023/05/02 03:28:47;;;;;;;8.40;6.13;;;;;;;;;;5069231;28;20218;-58
2023/05/02 03:31:14;;;;;;;9.20;6.30;;;;;;;;;;5069227;28;20210;-58
2023/05/02 03:33:41;;;;;;;10.60;7.00;;;;;;;;;;5069168;28;20211;-58
2023/05/02 03:36:10;;;;;;;12.47;7.47;;;;;;;;;;5069138;28;20207;-58
2023/05/02 03:38:37;;;;;;;11.10;7.30;;;;;;;;;;5067443;28;20219;-58
2023/05/02 03:41:04;;;;;;;9.53;7.23;;;;;;;;;;5069057;28;20246;-58
2023/05/02 03:43:33;;;;;;;18.70;8.57;;;;;;;;;;5069213;28;20211;-59
2023/05/02 03:46:05;;;;;;;15.20;8.67;;;;;;;;;;5068606;28;20218;-58
2023/05/02 03:48:32;;;;;;;14.97;8.90;;;;;;;;;;5069235;28;20207;-59
2023/05/02 03:50:59;;;;;;;12.53;9.00;;;;;;;;;;5068383;28;20207;-58
2023/05/02 03:53:26;;;;;;;14.30;9.00;;;;;;;;;;5068132;28;20207;-59
2023/05/02 03:55:53;;;;;;;17.80;8.80;;;;;;;;;;5068283;28;20206;-58
2023/05/02 03:58:21;;;;;;;17.13;9.97;;;;;;;;;;5068434;28;20845;-58
2023/05/02 04:00:49;;;;;;;14.60;9.30;;;;;;;;;;5068324;28;20230;-58
2023/05/02 04:03:16;;;;;;;16.37;9.93;;;;;;;;;;5068624;28;20215;-58
2023/05/02 04:05:43;;;;;;;16.00;10.10;;;;;;;;;;5068084;28;20270;-59
2023/05/02 04:08:10;;;;;;;14.67;9.33;;;;;;;;;;5068264;28;20280;-59
2023/05/02 04:10:37;;;;;;;15.33;9.60;;;;;;;;;;5068042;28;20286;-59
2023/05/02 04:13:04;;;;;;;14.73;9.27;;;;;;;;;;5068099;28;20202;-59
2023/05/02 04:15:31;;;;;;;16.50;10.47;;;;;;;;;;5068033;28;20826;-59
2023/05/02 04:18:00;;;;;;;15.10;9.90;;;;;;;;;;5068068;28;20199;-60
2023/05/02 04:20:27;;;;;;;21.37;11.10;;;;;;;;;;5068021;28;20199;-59
2023/05/02 04:22:54;;;;;;;18.73;11.30;;;;;;;;;;5067864;28;20226;-59
2023/05/02 04:25:21;;;;;;;19.03;10.90;;;;;;;;;;5067040;28;20226;-59
2023/05/02 04:27:48;;;;;;;18.33;10.47;;;;;;;;;;5067861;28;20215;-59
2023/05/02 04:30:15;;;;;;;22.03;11.67;;;;;;;;;;5067815;28;20205;-60
2023/05/02 04:32:42;;;;;;;20.13;11.80;;;;;;;;;;5067745;28;20203;-59
2023/05/02 04:35:11;;;;;;;18.47;10.83;;;;;;;;;;5067858;28;20203;-59
2023/05/02 04:37:38;;;;;;;20.47;12.70;;;;;;;;;;5067853;28;20210;-59
2023/05/02 04:40:05;;;;;;;22.20;12.00;;;;;;;;;;5067415;28;20243;-59
2023/05/02 04:42:32;;;;;;;23.90;12.23;;;;;;;;;;5067301;28;20210;-59
2023/05/02 04:44:59;;;;;;;21.60;11.47;;;;;;;;;;5067520;28;20280;-59
2023/05/02 04:47:26;;;;;;;23.00;12.60;;;;;;;;;;5067580;28;20268;-59
2023/05/02 04:49:53;;;;;;;19.07;10.80;;;;;;;;;;5067263;28;20206;-59
2023/05/02 04:52:21;;;;;;;24.67;12.93;;;;;;;;;;5066994;28;20213;-59
2023/05/02 04:54:48;;;;;;;22.00;11.73;;;;;;;;;;5066911;28;20237;-59
2023/05/02 04:57:15;;;;;;;22.80;12.10;;;;;;;;;;5067211;28;20642;-59
2023/05/02 04:59:42;;;;;;;21.23;11.80;;;;;;;;;;5067296;28;20207;-59
2023/05/02 05:02:11;;;;;;;19.67;11.70;;;;;;;;;;5066756;28;20207;-59
2023/05/02 05:04:38;;;;;;;19.03;12.33;;;;;;;;;;5065028;28;20215;-59
2023/05/02 05:07:05;;;;;;;19.50;11.57;;;;;;;;;;5067310;28;20198;-59
2023/05/02 05:09:33;;;;;;;19.37;10.60;;;;;;;;;;5066769;28;20203;-59
2023/05/02 05:12:00;;;;;;;18.73;11.70;;;;;;;;;;5066841;28;20845;-59
2023/05/02 05:14:28;;;;;;;24.20;12.37;;;;;;;;;;5067019;28;20294;-59
2023/05/02 05:16:55;;;;;;;23.40;12.13;;;;;;;;;;5067090;28;20290;-59
2023/05/02 05:19:22;;;;;;;21.40;11.60;;;;;;;;;;5067034;28;20731;-59
2023/05/02 05:21:49;;;;;;;26.97;12.13;;;;;;;;;;5066751;28;20199;-59
2023/05/02 05:24:16;;;;;;;17.47;11.40;;;;;;;;;;5066727;28;20707;-60
2023/05/02 05:26:44;;;;;;;22.40;11.87;;;;;;;;;;5066581;28;20653;-59
2023/05/02 05:29:11;;;;;;;22.27;11.83;;;;;;;;;;5066573;28;20302;-59
2023/05/02 05:31:38;;;;;;;23.40;12.20;;;;;;;;;;5066283;28;20570;-59
2023/05/02 05:34:05;;;;;;;21.93;11.90;;;;;;;;;;5066489;28;20206;-59
2023/05/02 05:36:33;;;;;;;21.13;11.93;;;;;;;;;;5066072;28;20222;-62
2023/05/02 05:39:00;;;;;;;22.37;12.87;;;;;;;;;;5069082;28;20285;-59
2023/05/02 05:41:27;;;;;;;21.57;11.93;;;;;;;;;;5073574;28;20569;-59
2023/05/02 05:43:56;;;;;;;21.37;12.30;;;;;;;;;;5070037;28;20225;-59
2023/05/02 05:46:23;;;;;;;23.77;13.17;;;;;;;;;;5067026;28;20268;-59
2023/05/02 05:48:50;;;;;;;30.73;13.37;;;;;;;;;;5065924;28;20684;-59
2023/05/02 05:51:17;;;;;;;22.33;12.23;;;;;;;;;;5065493;28;20707;-59
2023/05/02 05:53:44;;;;;;;18.07;11.17;;;;;;;;;;5066112;28;20225;-59
2023/05/02 05:56:11;;;;;;;28.17;13.00;;;;;;;;;;5066761;28;20203;-60
2023/05/02 05:58:38;;;;;;;23.03;12.70;;;;;;;;;;5066670;28;20229;-60
2023/05/02 06:01:07;;;;;;;21.43;12.13;;;;;;;;;;5067278;28;20211;-60
2023/05/02 06:03:34;;;;;;;23.03;12.97;;;;;;;;;;5066802;28;20281;-60
2023/05/02 06:06:04;;;;;;;21.97;12.87;;;;;;;;;;5066969;28;20238;-60
2023/05/02 06:08:31;;;;;;;26.13;13.10;;;;;;;;;;5066581;28;20210;-60
2023/05/02 06:10:58;;;;;;;25.60;12.97;;;;;;;;;;5066733;28;20240;-60
2023/05/02 06:13:25;;;;;;;25.97;13.47;;;;;;;;;;5066562;28;20203;-60
2023/05/02 06:15:52;;;;;;;25.97;13.13;;;;;;;;;;5067160;28;20207;-60
2023/05/02 06:18:20;;;;;;;23.53;12.00;;;;;;;;;;5066800;28;20203;-60
2023/05/02 06:20:47;;;;;;;24.33;13.07;;;;;;;;;;5066466;28;20207;-59
2023/05/02 06:23:14;;;;;;;25.47;13.20;;;;;;;;;;5068889;28;20226;-59
2023/05/02 06:25:41;;;;;;;25.50;13.67;;;;;;;;;;5070035;28;20279;-60
2023/05/02 06:28:09;;;;;;;27.00;13.50;;;;;;;;;;5070208;28;20687;-59
2023/05/02 06:30:36;;;;;;;32.17;13.97;;;;;;;;;;5071214;28;20321;-59
2023/05/02 06:33:05;;;;;;;28.47;13.43;;;;;;;;;;5073100;28;20672;-59
2023/05/02 06:35:33;;;;;;;25.90;13.27;;;;;;;;;;5081503;28;20255;-59
2023/05/02 06:38:00;;;;;;;25.00;12.13;;;;;;;;;;5076496;28;20222;-58
2023/05/02 06:40:27;;;;;;;27.30;12.23;;;;;;;;;;5069724;28;20246;-59
2023/05/02 06:42:55;;;;;;;30.10;14.20;;;;;;;;;;5069289;28;20207;-59
2023/05/02 06:45:22;;;;;;;25.33;12.43;;;;;;;;;;5069790;28;20417;-58
2023/05/02 06:47:49;;;;;;;24.10;12.17;;;;;;;;;;5069271;28;20309;-59
2023/05/02 06:50:16;;;;;;;24.97;12.47;;;;;;;;;;5069611;28;20722;-59
2023/05/02 06:52:45;;;;;;;27.10;13.48;;;;;;;;;;5069412;28;20207;-59
2023/05/02 06:55:12;;;;;;;25.00;12.53;;;;;;;;;;5069447;28;20207;-59
2023/05/02 06:57:39;;;;;;;24.88;13.38;;;;;;;;;;5068955;28;20207;-60
2023/05/02 07:00:07;;;;;;;22.60;12.07;;;;;;;;;;5069740;28;20641;-60
2023/05/02 07:02:34;;;;;;;24.63;12.32;;;;;;;;;;5069347;28;20357;-57
2023/05/02 07:05:01;;;;;;;26.27;11.75;;;;;;;;;;5069286;28;20341;-59
2023/05/02 07:07:28;;;;;;;20.23;10.93;;;;;;;;;;5068579;28;20759;-58
2023/05/02 07:09:56;;;;;;;28.80;11.60;;;;;;;;;;5068865;28;20211;-58
2023/05/02 07:12:23;;;;;;;21.73;11.23;;;;;;;;;;5068971;28;20678;-58
2023/05/02 07:14:50;;;;;;;19.00;10.45;;;;;;;;;;5069257;28;20215;-58
2023/05/02 07:17:18;;;;;;;18.38;10.05;;;;;;;;;;5068304;28;20578;-59
2023/05/02 07:19:45;;;;;;;22.52;9.95;;;;;;;;;;5068781;28;20218;-61
2023/05/02 07:22:12;;;;;;;20.38;9.93;;;;;;;;;;5068678;28;20260;-57
2023/05/02 07:24:40;;;;;;;19.90;10.45;;;;;;;;;;5068676;28;20272;-58
2023/05/02 07:27:09;;;;;;;15.88;8.73;;;;;;;;;;5068467;28;20408;-59
2023/05/02 07:29:36;;;;;;;13.80;7.38;;;;;;;;;;5068899;28;20210;-58
2023/05/02 07:32:03;;;;;;;13.18;7.80;;;;;;;;;;5068643;28;20207;-58
2023/05/02 07:34:31;;;;;;;10.63;7.05;;;;;;;;;;5068225;28;20216;-59
2023/05/02 07:36:58;;;;;;;16.20;8.25;;;;;;;;;;5068444;28;20211;-59
2023/05/02 07:39:25;;;;;;;14.30;7.25;;;;;;;;;;5068451;28;20234;-58
2023/05/02 07:41:52;;;;;;;10.02;6.13;;;;;;;;;;5064817;28;20202;-59
2023/05/02 07:44:22;;;;;;;10.77;7.03;;;;;;;;;;5067856;28;20203;-60
2023/05/02 07:46:49;;;;;;;8.93;5.80;;;;;;;;;;5068138;28;20222;-59
2023/05/02 07:49:16;;;;;;;7.68;5.00;;;;;;;;;;5068242;28;20608;-59
2023/05/02 07:51:44;;;;;;;9.77;5.53;;;;;;;;;;5067384;28;20205;-59
2023/05/02 07:54:15;;;;;;;9.55;5.30;;;;;;;;;;5067856;28;20214;-59
2023/05/02 07:56:43;;;;;;;9.50;5.40;;;;;;;;;;5067849;28;20206;-60
2023/05/02 07:59:10;;;;;;;9.52;6.40;;;;;;;;;;5064549;28;20215;-63
2023/05/02 08:01:38;;;;;;;6.13;4.93;;;;;;;;;;5066811;28;20211;-60
2023/05/02 08:04:05;;;;;;;10.45;5.65;;;;;;;;;;5067443;28;20217;-60
2023/05/02 08:06:32;;;;;;;10.80;6.85;;;;;;;;;;5067406;28;20222;-60
2023/05/02 08:09:00;;;;;;;11.07;6.15;;;;;;;;;;5065735;28;20269;-60
2023/05/02 08:11:27;;;;;;;12.75;6.55;;;;;;;;;;5067769;28;20211;-60
2023/05/02 08:13:54;;;;;;;12.48;6.15;;;;;;;;;;5066179;28;20215;-61
2023/05/02 08:16:21;;;;;;;13.77;6.43;;;;;;;;;;5068189;28;20207;-61
2023/05/02 08:18:49;;;;;;;8.25;6.10;;;;;;;;;;5067386;28;20585;-59
2023/05/02 08:21:17;;;;;;;11.05;6.40;;;;;;;;;;5067322;28;20211;-59
2023/05/02 08:23:45;;;;;;;10.05;5.68;;;;;;;;;;5063039;28;20253;-58
2023/05/02 08:26:12;;;;;;;10.65;6.03;;;;;;;;;;5067227;28;20223;-59
2023/05/02 08:28:39;;;;;;;9.65;5.45;;;;;;;;;;5065651;28;20214;-59
2023/05/02 08:31:06;;;;;;;11.85;6.70;;;;;;;;;;5067221;28;20238;-60
2023/05/02 08:33:33;;;;;;;13.82;7.03;;;;;;;;;;5067775;28;20203;-60
2023/05/02 08:36:01;;;;;;;10.95;5.45;;;;;;;;;;5067097;28;20268;-60
2023/05/02 08:38:28;;;;;;;15.02;6.63;;;;;;;;;;5067263;28;20214;-60
2023/05/02 08:40:55;;;;;;;9.30;5.50;;;;;;;;;;5067099;28;20724;-60
2023/05/02 08:43:22;;;;;;;12.30;5.88;;;;;;;;;;5065806;28;20203;-60
2023/05/02 08:45:50;;;;;;;8.75;4.68;;;;;;;;;;5066791;28;20230;-60
2023/05/02 08:48:18;;;;;;;8.00;5.10;;;;;;;;;;5067926;28;20211;-60
2023/05/02 08:50:47;;;;;;;8.30;4.72;;;;;;;;;;5067329;28;20230;-60
2023/05/02 08:53:15;;;;;;;10.57;5.20;;;;;;;;;;5067261;28;20244;-60
2023/05/02 08:55:42;;;;;;;8.73;5.20;;;;;;;;;;5067489;28;20219;-60
2023/05/02 08:58:10;;;;;;;10.15;5.10;;;;;;;;;;5065658;28;20214;-60
2023/05/02 09:00:39;;;;;;;8.73;5.03;;;;;;;;;;5064903;28;20211;-60
2023/05/02 09:03:07;;;;;;;8.50;4.40;;;;;;;;;;5062595;28;20884;-60
2023/05/02 09:05:36;;;;;;;5.15;3.72;;;;;;;;;;5066232;28;20231;-60
2023/05/02 09:08:03;;;;;;;4.85;3.60;;;;;;;;;;5066458;28;20638;-60
2023/05/02 09:10:32;;;;;;;7.28;3.30;;;;;;;;;;5066622;28;20219;-60
2023/05/02 09:13:01;;;;;;;4.22;3.53;;;;;;;;;;5065243;28;20199;-61
2023/05/02 09:15:28;;;;;;;6.93;3.38;;;;;;;;;;5053906;28;20203;-60
2023/05/02 09:17:56;;;;;;;7.38;3.50;;;;;;;;;;5067101;28;20218;-60
2023/05/02 09:20:23;;;;;;;4.28;3.25;;;;;;;;;;5067012;28;20206;-60
2023/05/02 09:22:50;;;;;;;5.63;3.38;;;;;;;;;;5066641;28;20234;-60
2023/05/02 09:25:18;;;;;;;4.63;3.42;;;;;;;;;;5066715;28;20211;-60
2023/05/02 09:27:53;;;;;;;5.50;3.65;;;;;;;;;;5066940;28;20221;-61
2023/05/02 09:30:21;;;;;;;6.25;3.30;;;;;;;;;;5066746;28;20210;-60
2023/05/02 09:32:50;;;;;;;5.20;3.63;;;;;;;;;;5066658;28;20214;-60
2023/05/02 09:35:22;;;;;;;5.05;3.42;;;;;;;;;;5066840;28;20215;-60
2023/05/02 09:37:49;;;;;;;4.30;3.45;;;;;;;;;;5066678;28;20214;-60
2023/05/02 09:40:16;;;;;;;4.93;3.72;;;;;;;;;;5066658;28;20250;-60
2023/05/02 09:42:43;;;;;;;6.93;3.78;;;;;;;;;;5066541;28;20203;-60
2023/05/02 09:45:19;;;;;;;7.82;4.47;;;;;;;;;;5066461;28;20225;-60
2023/05/02 09:47:47;;;;;;;3.75;3.38;;;;;;;;;;5066564;28;20204;-60
2023/05/02 09:50:32;;;;;;;4.10;2.70;;;;;;;;;;5066949;28;20446;-60
2023/05/02 09:53:02;;;;;;;3.08;2.75;;;;;;;;;;5067119;28;20279;-61
2023/05/02 09:55:30;;;;;;;7.95;3.50;;;;;;;;;;5066818;28;20218;-61
2023/05/02 09:57:57;;;;;;;4.28;3.17;;;;;;;;;;5070917;28;20749;-61
2023/05/02 10:00:38;;;;;;;5.95;2.70;;;;;;;;;;5070919;28;20261;-60
2023/05/02 10:03:06;;;;;;;2.42;2.25;;;;;;;;;;5071480;28;20199;-60
2023/05/02 10:05:34;;;;;;;4.30;2.88;;;;;;;;;;5070517;28;20203;-60
2023/05/02 10:08:01;;;;;;;2.78;2.38;;;;;;;;;;5071168;28;20215;-60
2023/05/02 10:10:28;;;;;;;2.70;2.50;;;;;;;;;;5070743;28;20256;-60
2023/05/02 10:12:56;;;;;;;3.25;2.95;;;;;;;;;;5069208;28;20214;-60
2023/05/02 10:15:24;;;;;;;3.67;2.53;;;;;;;;;;5070718;28;20199;-61
2023/05/02 10:17:54;;;;;;;4.00;2.20;;;;;;;;;;5071190;28;20288;-60
2023/05/02 10:20:23;;;;;;;4.22;2.53;;;;;;;;;;5069271;28;20225;-61
2023/05/02 10:22:51;;;;;;;2.50;2.30;;;;;;;;;;5070597;28;20249;-61
2023/05/02 10:25:18;;;;;;;3.03;2.33;;;;;;;;;;5069349;28;20219;-60
2023/05/02 10:27:45;;;;;;;2.30;2.10;;;;;;;;;;5068753;28;20628;-60
2023/05/02 10:30:13;;;;;;;1.98;1.70;;;;;;;;;;5070310;28;20207;-59
2023/05/02 10:32:40;;;;;;;2.13;1.90;;;;;;;;;;5070611;28;20433;-60
2023/05/02 10:35:09;;;;;;;1.83;1.70;;;;;;;;;;5069490;28;20211;-60
2023/05/02 10:37:37;;;;;;;2.22;2.05;;;;;;;;;;5070390;28;20617;-60
2023/05/02 10:40:05;;;;;;;2.10;1.98;;;;;;;;;;5069323;28;20239;-60
2023/05/02 10:42:35;;;;;;;1.90;1.80;;;;;;;;;;5069472;28;20238;-60
2023/05/02 10:45:02;;;;;;;1.73;1.73;;;;;;;;;;5069409;28;20202;-61
2023/05/02 10:47:30;;;;;;;1.58;1.48;;;;;;;;;;5066643;28;20226;-61
2023/05/02 10:49:58;;;;;;;1.83;1.73;;;;;;;;;;5064926;28;20235;-62
2023/05/02 10:52:27;;;;;;;2.08;1.98;;;;;;;;;;5069593;28;20296;-61
2023/05/02 10:55:09;;;;;;;1.40;1.30;;;;;;;;;;5068939;28;20203;-60
2023/05/02 10:57:57;;;;;;;1.80;1.70;;;;;;;;;;5069597;28;20207;-61
2023/05/02 11:00:25;;;;;;;1.80;1.55;;;;;;;;;;5061219;28;20678;-62
2023/05/02 11:02:52;;;;;;;2.25;2.08;;;;;;;;;;5068784;28;20264;-62
2023/05/02 11:05:19;;;;;;;2.08;1.88;;;;;;;;;;5069476;28;20206;-61
2023/05/02 11:07:47;;;;;;;1.27;1.23;;;;;;;;;;5068416;28;20253;-61
2023/05/02 11:10:27;;;;;;;1.75;1.48;;;;;;;;;;5067419;28;20211;-61
2023/05/02 11:12:55;;;;;;;1.40;1.10;;;;;;;;;;5072719;28;20255;-61
2023/05/02 11:15:41;;;;;;;1.83;1.30;;;;;;;;;;5085314;28;20206;-61
2023/05/02 11:18:10;;;;;;;1.27;1.20;;;;;;;;;;5068717;28;20214;-61
2023/05/02 11:20:38;;;;;;;1.13;1.02;;;;;;;;;;5068334;28;20739;-62
2023/05/02 11:23:24;;;;;;;1.00;0.95;;;;;;;;;;5067889;28;20223;-63
2023/05/02 11:25:52;;;;;;;1.23;1.23;;;;;;;;;;5067724;28;20594;-63
2023/05/02 11:28:38;;;;;;;2.00;1.88;;;;;;;;;;5067922;28;20207;-61
2023/05/02 11:31:05;;;;;;;1.63;1.50;;;;;;;;;;5061350;28;20206;-67
2023/05/02 11:33:33;;;;;;;1.55;1.45;;;;;;;;;;5068295;28;20218;-61
2023/05/02 11:36:00;;;;;;;1.45;1.45;;;;;;;;;;5067927;28;20233;-60
2023/05/02 11:38:35;;;;;;;1.40;1.30;;;;;;;;;;5067381;28;20210;-61
2023/05/02 11:41:03;;;;;;;1.25;1.25;;;;;;;;;;5057389;28;20303;-61
2023/05/02 11:43:30;;;;;;;1.17;1.17;;;;;;;;;;5064083;28;20615;-61
2023/05/02 11:45:58;;;;;;;2.13;1.98;;;;;;;;;;5067558;28;20673;-61
2023/05/02 11:48:27;;;;;;;1.50;1.50;;;;;;;;;;5067158;28;20791;-61
2023/05/02 11:50:54;;;;;;;1.70;1.30;;;;;;;;;;5067950;28;20256;-61
2023/05/02 11:53:22;;;;;;;1.40;1.40;;;;;;;;;;5067300;28;20234;-61
2023/05/02 11:55:51;;;;;;;1.70;1.60;;;;;;;;;;5067578;28;20229;-61
2023/05/02 11:58:20;;;;;;;1.98;1.65;;;;;;;;;;5066275;28;20845;-61
2023/05/02 12:00:48;;;;;;;1.73;1.63;;;;;;;;;;5066972;28;20309;-61
2023/05/02 12:03:22;;;;;;;2.20;2.00;;;;;;;;;;5066345;28;20629;-61
2023/05/02 12:05:50;;;;;;;1.80;1.70;;;;;;;;;;5067618;28;20202;-61
2023/05/02 12:08:21;;;;;;;1.65;1.55;;;;;;;;;;5067071;28;20227;-61
2023/05/02 12:10:50;;;;;;;1.95;1.85;;;;;;;;;;5067813;28;20213;-61
2023/05/02 12:13:20;;;;;;;1.80;1.70;;;;;;;;;;5066822;28;20204;-61
2023/05/02 12:15:47;;;;;;;2.10;2.00;;;;;;;;;;5067237;28;20207;-61
2023/05/02 12:18:14;;;;;;;2.08;1.98;;;;;;;;;;5067287;28;20210;-61
2023/05/02 12:20:41;;;;;;;3.60;2.53;;;;;;;;;;5067008;28;20473;-61
2023/05/02 12:23:09;;;;;;;2.63;2.42;;;;;;;;;;5065763;28;20242;-61
2023/05/02 12:25:39;;;;;;;2.85;2.60;;;;;;;;;;5065832;28;20207;-62
2023/05/02 12:28:07;;;;;;;5.95;1.92;;;;;;;;;;5066153;28;20239;-61
2023/05/02 12:30:37;;;;;;;2.05;1.55;;;;;;;;;;5067524;28;20207;-64
2023/05/02 12:33:05;;;;;;;2.53;2.33;;;;;;;;;;5066287;28;20336;-61
2023/05/02 12:35:32;;;;;;;2.33;1.85;;;;;;;;;;5067373;28;20213;-60
2023/05/02 12:38:10;;;;;;;1.73;1.63;;;;;;;;;;5066462;28;20214;-61
2023/05/02 12:40:37;;;;;;;1.73;1.55;;;;;;;;;;5066355;28;20270;-61
2023/05/02 12:43:06;;;;;;;2.10;1.90;;;;;;;;;;5066159;28;20203;-60
2023/05/02 12:45:35;;;;;;;1.60;1.50;;;;;;;;;;5067244;28;20297;-61
2023/05/02 12:48:02;;;;;;;1.67;1.58;;;;;;;;;;5066396;28;20231;-60
2023/05/02 12:50:36;;;;;;;1.65;1.55;;;;;;;;;;5066873;28;20218;-61
2023/05/02 12:53:05;;;;;;;2.72;2.17;;;;;;;;;;5066050;28;20290;-61
2023/05/02 12:55:32;;;;;;;2.17;2.03;;;;;;;;;;5065875;28;20207;-59
2023/05/02 12:58:02;;;;;;;2.03;1.80;;;;;;;;;;5065546;28;20203;-63
2023/05/02 13:00:29;;;;;;;1.75;1.60;;;;;;;;;;5054361;28;20214;-60
2023/05/02 13:02:58;;;;;;;2.22;1.67;;;;;;;;;;5065922;28;20211;-60
2023/05/02 13:05:25;;;;;;;1.40;1.30;;;;;;;;;;5066994;28;20669;-60
2023/05/02 13:07:55;;;;;;;1.13;1.13;;;;;;;;;;5065944;28;20496;-60
2023/05/02 13:10:23;;;;;;;1.05;1.05;;;;;;;;;;5064995;28;20211;-60
2023/05/02 13:12:51;;;;;;;2.13;1.63;;;;;;;;;;5063522;28;20226;-60
2023/05/02 13:15:18;;;;;;;1.40;1.30;;;;;;;;;;5065491;28;20214;-60
2023/05/02 13:17:46;;;;;;;1.33;1.23;;;;;;;;;;5066149;28;20596;-60
2023/05/02 13:20:15;;;;;;;4.07;1.27;;;;;;;;;;5061805;28;20303;-60
2023/05/02 13:22:42;;;;;;;0.85;0.85;;;;;;;;;;5061602;28;20288;-60
2023/05/02 13:25:09;;;;;;;1.40;1.30;;;;;;;;;;5064480;28;20265;-60
2023/05/02 13:27:36;;;;;;;0.82;0.82;;;;;;;;;;5064648;28;20223;-60
2023/05/02 13:30:03;;;;;;;1.00;1.00;;;;;;;;;;5066704;28;20588;-59
2023/05/02 13:32:30;;;;;;;1.95;1.27;;;;;;;;;;5061424;28;20224;-60
2023/05/02 13:34:57;;;;;;;1.10;1.10;;;;;;;;;;5065496;28;20279;-60
2023/05/02 13:37:26;;;;;;;2.67;1.00;;;;;;;;;;5065150;28;20210;-60
2023/05/02 13:39:53;;;;;;;0.80;0.80;;;;;;;;;;5065427;28;20251;-60
2023/05/02 13:42:21;;;;;;;1.10;1.10;;;;;;;;;;5064376;28;20217;-60
2023/05/02 13:44:48;;;;;;;1.55;1.48;;;;;;;;;;5064256;28;20218;-60
2023/05/02 13:47:20;;;;;;;3.38;1.58;;;;;;;;;;5065025;28;20226;-60
2023/05/02 13:49:47;;;;;;;2.65;1.70;;;;;;;;;;5065756;28;20214;-60
2023/05/02 13:52:14;;;;;;;2.00;1.90;;;;;;;;;;5065655;28;20207;-59
2023/05/02 13:54:43;;;;;;;2.20;2.03;;;;;;;;;;5065838;28;20788;-60
2023/05/02 13:57:10;;;;;;;1.88;1.77;;;;;;;;;;5065485;28;20245;-60
2023/05/02 13:59:37;;;;;;;1.85;1.67;;;;;;;;;;5075724;28;20203;-60
2023/05/02 14:02:04;;;;;;;1.63;1.58;;;;;;;;;;5066068;28;20211;-60
2023/05/02 14:04:32;;;;;;;2.42;2.20;;;;;;;;;;5066008;28;20272;-60
2023/05/02 14:06:59;;;;;;;4.00;2.53;;;;;;;;;;5066447;28;20227;-59
2023/05/02 14:09:26;;;;;;;2.30;2.15;;;;;;;;;;5064453;28;20221;-59
2023/05/02 14:11:54;;;;;;;2.63;2.42;;;;;;;;;;5066285;28;20211;-60
2023/05/02 14:14:21;;;;;;;3.25;2.25;;;;;;;;;;5066123;28;20288;-59
2023/05/02 14:16:48;;;;;;;3.50;2.67;;;;;;;;;;5066702;28;20211;-59
2023/05/02 14:19:15;;;;;;;3.35;3.05;;;;;;;;;;5066183;28;20214;-60
2023/05/02 14:21:42;;;;;;;3.20;2.90;;;;;;;;;;5066287;28;20261;-60
2023/05/02 14:24:11;;;;;;;2.90;2.70;;;;;;;;;;5064478;28;20223;-60
2023/05/02 14:26:38;;;;;;;2.33;2.13;;;;;;;;;;5066664;28;20211;-60
2023/05/02 14:29:07;;;;;;;2.35;2.03;;;;;;;;;;5065944;28;20230;-58
2023/05/02 14:31:34;;;;;;;2.75;2.45;;;;;;;;;;5065884;28;20211;-59
2023/05/02 14:34:01;;;;;;;2.30;2.20;;;;;;;;;;5064619;28;20207;-63
2023/05/02 14:36:28;;;;;;;1.98;1.88;;;;;;;;;;5072735;28;20215;-59
2023/05/02 14:38:55;;;;;;;2.00;1.90;;;;;;;;;;5064676;28;20203;-59
2023/05/02 14:41:22;;;;;;;2.92;1.95;;;;;;;;;;5065760;28;20247;-59